sensor_id;sensor_type;location;lat;lon;timestamp;temperature;humidity
16347;DHT22;8283;48.504;13.734;2022-12-29T00:02:16;6.40;70.80
16347;DHT22;8283;48.504;13.734;2022-12-29T00:05:01;6.40;70.90
16347;DHT22;8283;48.504;13.734;2022-12-29T00:07:45;6.40;70.90
16347;DHT22;8283;48.504;13.734;2022-12-29T00:10:30;6.30;70.90
16347;DHT22;8283;48.504;13.734;2022-12-29T00:13:14;6.40;70.90
16347;DHT22;8283;48.504;13.734;2022-12-29T00:16:17;6.30;70.90
16347;DHT22;8283;48.504;13.734;2022-12-29T00:19:03;6.30;70.80
16347;DHT22;8283;48.504;13.734;2022-12-29T00:21:48;6.30;70.80
16347;DHT22;8283;48.504;13.734;2022-12-29T00:24:51;6.30;70.80
16347;DHT22;8283;48.504;13.734;2022-12-29T00:27:54;6.30;70.80
16347;DHT22;8283;48.504;13.734;2022-12-29T00:30:59;6.30;70.90
16347;DHT22;8283;48.504;13.734;2022-12-29T00:34:03;6.30;70.90
16347;DHT22;8283;48.504;13.734;2022-12-29T00:37:06;6.30;70.80
16347;DHT22;8283;48.504;13.734;2022-12-29T00:39:51;6.20;70.90
16347;DHT22;8283;48.504;13.734;2022-12-29T00:42:54;6.20;70.90
16347;DHT22;8283;48.504;13.734;2022-12-29T00:45:57;6.20;70.90
16347;DHT22;8283;48.504;13.734;2022-12-29T00:48:41;6.20;70.90
16347;DHT22;8283;48.504;13.734;2022-12-29T00:51:45;6.20;71.00
16347;DHT22;8283;48.504;13.734;2022-12-29T00:54:32;6.10;71.00
16347;DHT22;8283;48.504;13.734;2022-12-29T00:57:18;6.20;71.10
16347;DHT22;8283;48.504;13.734;2022-12-29T01:00:02;6.10;71.10
16347;DHT22;8283;48.504;13.734;2022-12-29T01:02:47;6.10;71.80
16347;DHT22;8283;48.504;13.734;2022-12-29T01:05:36;6.10;71.20
16347;DHT22;8283;48.504;13.734;2022-12-29T01:08:21;6.10;71.30
16347;DHT22;8283;48.504;13.734;2022-12-29T01:11:12;6.10;71.10
16347;DHT22;8283;48.504;13.734;2022-12-29T01:13:57;6.20;71.30
16347;DHT22;8283;48.504;13.734;2022-12-29T01:16:41;6.10;71.10
16347;DHT22;8283;48.504;13.734;2022-12-29T01:19:26;6.10;71.20
16347;DHT22;8283;48.504;13.734;2022-12-29T01:22:10;6.10;71.20
16347;DHT22;8283;48.504;13.734;2022-12-29T01:24:54;6.10;71.20
16347;DHT22;8283;48.504;13.734;2022-12-29T01:27:39;6.10;71.20
16347;DHT22;8283;48.504;13.734;2022-12-29T01:30:23;6.10;71.30
16347;DHT22;8283;48.504;13.734;2022-12-29T01:33:10;6.10;71.30
16347;DHT22;8283;48.504;13.734;2022-12-29T01:36:05;6.10;71.30
16347;DHT22;8283;48.504;13.734;2022-12-29T01:38:50;6.20;71.60
16347;DHT22;8283;48.504;13.734;2022-12-29T01:41:35;6.10;71.30
16347;DHT22;8283;48.504;13.734;2022-12-29T01:44:53;6.10;71.40
16347;DHT22;8283;48.504;13.734;2022-12-29T01:50:33;6.10;71.30
16347;DHT22;8283;48.504;13.734;2022-12-29T01:53:25;6.10;71.50
16347;DHT22;8283;48.504;13.734;2022-12-29T01:56:15;6.10;71.30
16347;DHT22;8283;48.504;13.734;2022-12-29T01:59:05;6.20;71.30
16347;DHT22;8283;48.504;13.734;2022-12-29T02:01:51;6.20;71.30
16347;DHT22;8283;48.504;13.734;2022-12-29T02:04:39;6.10;71.20
16347;DHT22;8283;48.504;13.734;2022-12-29T02:07:26;6.10;71.20
16347;DHT22;8283;48.504;13.734;2022-12-29T02:10:12;6.10;71.20
16347;DHT22;8283;48.504;13.734;2022-12-29T02:12:59;6.10;71.30
16347;DHT22;8283;48.504;13.734;2022-12-29T02:18:51;6.10;71.60
16347;DHT22;8283;48.504;13.734;2022-12-29T02:21:49;6.10;71.50
16347;DHT22;8283;48.504;13.734;2022-12-29T02:27:58;6.10;71.40
16347;DHT22;8283;48.504;13.734;2022-12-29T02:34:14;6.10;71.70
16347;DHT22;8283;48.504;13.734;2022-12-29T02:37:20;6.10;71.70
16347;DHT22;8283;48.504;13.734;2022-12-29T02:40:30;6.10;71.50
16347;DHT22;8283;48.504;13.734;2022-12-29T02:43:51;6.10;71.50
16347;DHT22;8283;48.504;13.734;2022-12-29T02:46:49;6.00;71.70
16347;DHT22;8283;48.504;13.734;2022-12-29T02:49:39;6.00;71.50
16347;DHT22;8283;48.504;13.734;2022-12-29T02:52:40;6.00;71.30
16347;DHT22;8283;48.504;13.734;2022-12-29T02:55:27;6.00;71.30
16347;DHT22;8283;48.504;13.734;2022-12-29T02:58:18;6.00;71.30
16347;DHT22;8283;48.504;13.734;2022-12-29T03:01:14;6.00;71.50
16347;DHT22;8283;48.504;13.734;2022-12-29T03:04:12;6.00;71.60
16347;DHT22;8283;48.504;13.734;2022-12-29T03:10:15;6.00;71.60
16347;DHT22;8283;48.504;13.734;2022-12-29T03:16:50;6.00;71.80
16347;DHT22;8283;48.504;13.734;2022-12-29T03:19:44;6.00;71.30
16347;DHT22;8283;48.504;13.734;2022-12-29T03:22:32;6.00;71.50
16347;DHT22;8283;48.504;13.734;2022-12-29T03:25:28;5.90;71.40
16347;DHT22;8283;48.504;13.734;2022-12-29T03:28:20;6.00;71.50
16347;DHT22;8283;48.504;13.734;2022-12-29T03:31:08;6.00;71.60
16347;DHT22;8283;48.504;13.734;2022-12-29T03:33:54;6.00;71.40
16347;DHT22;8283;48.504;13.734;2022-12-29T03:36:54;6.00;71.40
16347;DHT22;8283;48.504;13.734;2022-12-29T03:39:41;6.00;71.50
16347;DHT22;8283;48.504;13.734;2022-12-29T03:42:27;6.00;71.30
16347;DHT22;8283;48.504;13.734;2022-12-29T03:45:15;6.00;71.30
16347;DHT22;8283;48.504;13.734;2022-12-29T03:48:00;5.90;71.20
16347;DHT22;8283;48.504;13.734;2022-12-29T03:50:45;5.90;71.30
16347;DHT22;8283;48.504;13.734;2022-12-29T03:53:30;5.90;71.30
16347;DHT22;8283;48.504;13.734;2022-12-29T03:56:15;5.90;71.20
16347;DHT22;8283;48.504;13.734;2022-12-29T03:58:59;5.90;71.20
16347;DHT22;8283;48.504;13.734;2022-12-29T04:01:49;5.90;71.20
16347;DHT22;8283;48.504;13.734;2022-12-29T04:04:34;5.90;71.20
16347;DHT22;8283;48.504;13.734;2022-12-29T04:07:18;5.90;71.30
16347;DHT22;8283;48.504;13.734;2022-12-29T04:10:03;5.90;71.20
16347;DHT22;8283;48.504;13.734;2022-12-29T04:12:49;5.90;71.20
16347;DHT22;8283;48.504;13.734;2022-12-29T04:15:35;5.90;71.20
16347;DHT22;8283;48.504;13.734;2022-12-29T04:18:20;5.90;71.20
16347;DHT22;8283;48.504;13.734;2022-12-29T04:21:05;5.80;71.20
16347;DHT22;8283;48.504;13.734;2022-12-29T04:23:52;5.80;71.30
16347;DHT22;8283;48.504;13.734;2022-12-29T04:26:36;5.80;71.30
16347;DHT22;8283;48.504;13.734;2022-12-29T04:29:41;5.80;71.40
16347;DHT22;8283;48.504;13.734;2022-12-29T04:32:44;5.80;71.40
16347;DHT22;8283;48.504;13.734;2022-12-29T04:35:29;5.80;71.40
16347;DHT22;8283;48.504;13.734;2022-12-29T04:38:14;5.70;71.40
16347;DHT22;8283;48.504;13.734;2022-12-29T04:41:00;5.70;71.40
16347;DHT22;8283;48.504;13.734;2022-12-29T04:43:45;5.70;71.50
16347;DHT22;8283;48.504;13.734;2022-12-29T04:46:48;5.70;71.40
16347;DHT22;8283;48.504;13.734;2022-12-29T04:50:12;5.70;71.40
16347;DHT22;8283;48.504;13.734;2022-12-29T04:53:11;5.70;71.40
16347;DHT22;8283;48.504;13.734;2022-12-29T04:55:55;5.70;71.50
16347;DHT22;8283;48.504;13.734;2022-12-29T04:58:39;5.70;71.60
16347;DHT22;8283;48.504;13.734;2022-12-29T05:01:23;5.70;71.60
16347;DHT22;8283;48.504;13.734;2022-12-29T05:04:08;5.70;71.60
16347;DHT22;8283;48.504;13.734;2022-12-29T05:06:52;5.70;71.70
16347;DHT22;8283;48.504;13.734;2022-12-29T05:09:37;5.70;71.60
16347;DHT22;8283;48.504;13.734;2022-12-29T05:12:22;5.70;71.70
16347;DHT22;8283;48.504;13.734;2022-12-29T05:15:14;5.80;71.70
16347;DHT22;8283;48.504;13.734;2022-12-29T05:18:00;5.80;72.20
16347;DHT22;8283;48.504;13.734;2022-12-29T05:20:45;5.80;71.60
16347;DHT22;8283;48.504;13.734;2022-12-29T05:23:30;5.80;71.70
16347;DHT22;8283;48.504;13.734;2022-12-29T05:26:19;5.80;71.80
16347;DHT22;8283;48.504;13.734;2022-12-29T05:29:13;5.80;71.80
16347;DHT22;8283;48.504;13.734;2022-12-29T05:31:58;5.80;71.80
16347;DHT22;8283;48.504;13.734;2022-12-29T05:34:42;5.80;71.60
16347;DHT22;8283;48.504;13.734;2022-12-29T05:37:29;5.80;71.60
16347;DHT22;8283;48.504;13.734;2022-12-29T05:40:14;5.80;71.60
16347;DHT22;8283;48.504;13.734;2022-12-29T05:42:59;5.80;71.70
16347;DHT22;8283;48.504;13.734;2022-12-29T05:46:09;5.80;71.60
16347;DHT22;8283;48.504;13.734;2022-12-29T05:49:16;5.80;71.60
16347;DHT22;8283;48.504;13.734;2022-12-29T05:52:10;5.80;71.70
16347;DHT22;8283;48.504;13.734;2022-12-29T05:54:54;5.80;71.70
16347;DHT22;8283;48.504;13.734;2022-12-29T05:57:40;5.80;71.80
16347;DHT22;8283;48.504;13.734;2022-12-29T06:00:28;5.80;71.90
16347;DHT22;8283;48.504;13.734;2022-12-29T06:03:12;5.80;71.90
16347;DHT22;8283;48.504;13.734;2022-12-29T06:05:57;5.80;71.90
16347;DHT22;8283;48.504;13.734;2022-12-29T06:08:42;5.90;72.00
16347;DHT22;8283;48.504;13.734;2022-12-29T06:11:27;5.90;72.10
16347;DHT22;8283;48.504;13.734;2022-12-29T06:14:15;5.90;72.10
16347;DHT22;8283;48.504;13.734;2022-12-29T06:17:00;5.90;72.00
16347;DHT22;8283;48.504;13.734;2022-12-29T06:19:44;5.90;72.10
16347;DHT22;8283;48.504;13.734;2022-12-29T06:22:30;6.00;72.30
16347;DHT22;8283;48.504;13.734;2022-12-29T06:25:15;6.00;72.30
16347;DHT22;8283;48.504;13.734;2022-12-29T06:28:01;6.00;72.20
16347;DHT22;8283;48.504;13.734;2022-12-29T06:30:46;6.10;72.30
16347;DHT22;8283;48.504;13.734;2022-12-29T06:33:32;6.10;72.30
16347;DHT22;8283;48.504;13.734;2022-12-29T06:36:16;6.10;72.30
16347;DHT22;8283;48.504;13.734;2022-12-29T06:39:00;6.10;72.40
16347;DHT22;8283;48.504;13.734;2022-12-29T06:41:46;6.20;72.40
16347;DHT22;8283;48.504;13.734;2022-12-29T06:45:09;6.20;72.40
16347;DHT22;8283;48.504;13.734;2022-12-29T06:47:53;6.20;72.20
16347;DHT22;8283;48.504;13.734;2022-12-29T06:50:38;6.20;72.20
16347;DHT22;8283;48.504;13.734;2022-12-29T06:53:22;6.30;72.20
16347;DHT22;8283;48.504;13.734;2022-12-29T06:56:07;6.30;72.20
16347;DHT22;8283;48.504;13.734;2022-12-29T06:58:51;6.30;72.20
16347;DHT22;8283;48.504;13.734;2022-12-29T07:01:36;6.30;72.30
16347;DHT22;8283;48.504;13.734;2022-12-29T07:04:20;6.30;72.20
16347;DHT22;8283;48.504;13.734;2022-12-29T07:07:04;6.40;72.20
16347;DHT22;8283;48.504;13.734;2022-12-29T07:09:48;6.40;72.20
16347;DHT22;8283;48.504;13.734;2022-12-29T07:12:33;6.40;72.20
16347;DHT22;8283;48.504;13.734;2022-12-29T07:15:17;6.40;72.20
16347;DHT22;8283;48.504;13.734;2022-12-29T07:18:01;6.40;72.20
16347;DHT22;8283;48.504;13.734;2022-12-29T07:20:47;6.40;72.20
16347;DHT22;8283;48.504;13.734;2022-12-29T07:23:31;6.40;72.90
16347;DHT22;8283;48.504;13.734;2022-12-29T07:26:16;6.40;72.20
16347;DHT22;8283;48.504;13.734;2022-12-29T07:29:04;6.40;72.20
16347;DHT22;8283;48.504;13.734;2022-12-29T07:31:49;6.50;72.30
16347;DHT22;8283;48.504;13.734;2022-12-29T07:34:33;6.50;72.40
16347;DHT22;8283;48.504;13.734;2022-12-29T07:37:18;6.50;72.60
16347;DHT22;8283;48.504;13.734;2022-12-29T07:40:03;6.50;72.60
16347;DHT22;8283;48.504;13.734;2022-12-29T07:42:48;6.50;72.50
16347;DHT22;8283;48.504;13.734;2022-12-29T07:45:34;6.50;72.60
16347;DHT22;8283;48.504;13.734;2022-12-29T07:48:27;6.60;72.60
16347;DHT22;8283;48.504;13.734;2022-12-29T07:51:11;6.60;72.50
16347;DHT22;8283;48.504;13.734;2022-12-29T07:53:56;6.60;72.60
16347;DHT22;8283;48.504;13.734;2022-12-29T07:56:40;6.70;72.60
16347;DHT22;8283;48.504;13.734;2022-12-29T07:59:24;6.70;72.50
16347;DHT22;8283;48.504;13.734;2022-12-29T08:02:10;6.70;72.50
16347;DHT22;8283;48.504;13.734;2022-12-29T08:04:55;6.70;72.50
16347;DHT22;8283;48.504;13.734;2022-12-29T08:07:42;6.70;72.60
16347;DHT22;8283;48.504;13.734;2022-12-29T08:10:27;6.70;72.50
16347;DHT22;8283;48.504;13.734;2022-12-29T08:13:11;6.80;72.70
16347;DHT22;8283;48.504;13.734;2022-12-29T08:15:57;6.80;72.80
16347;DHT22;8283;48.504;13.734;2022-12-29T08:18:42;6.80;73.00
16347;DHT22;8283;48.504;13.734;2022-12-29T08:21:28;6.90;73.10
16347;DHT22;8283;48.504;13.734;2022-12-29T08:24:13;6.90;73.20
16347;DHT22;8283;48.504;13.734;2022-12-29T08:26:57;7.00;73.30
16347;DHT22;8283;48.504;13.734;2022-12-29T08:29:42;7.00;73.30
16347;DHT22;8283;48.504;13.734;2022-12-29T08:32:27;7.10;73.40
16347;DHT22;8283;48.504;13.734;2022-12-29T08:35:12;7.20;73.50
16347;DHT22;8283;48.504;13.734;2022-12-29T08:37:56;7.30;73.50
16347;DHT22;8283;48.504;13.734;2022-12-29T08:40:41;7.30;73.50
16347;DHT22;8283;48.504;13.734;2022-12-29T08:43:26;7.40;73.50
16347;DHT22;8283;48.504;13.734;2022-12-29T08:46:11;7.50;73.60
16347;DHT22;8283;48.504;13.734;2022-12-29T08:48:55;7.50;73.60
16347;DHT22;8283;48.504;13.734;2022-12-29T08:51:39;7.60;73.60
16347;DHT22;8283;48.504;13.734;2022-12-29T08:54:24;7.60;73.60
16347;DHT22;8283;48.504;13.734;2022-12-29T08:57:09;7.80;73.80
16347;DHT22;8283;48.504;13.734;2022-12-29T09:00:08;7.80;73.80
16347;DHT22;8283;48.504;13.734;2022-12-29T09:02:54;7.90;73.90
16347;DHT22;8283;48.504;13.734;2022-12-29T09:05:38;8.00;73.80
16347;DHT22;8283;48.504;13.734;2022-12-29T09:08:22;8.10;73.80
16347;DHT22;8283;48.504;13.734;2022-12-29T09:11:17;8.10;73.70
16347;DHT22;8283;48.504;13.734;2022-12-29T09:14:02;8.20;73.60
16347;DHT22;8283;48.504;13.734;2022-12-29T09:16:47;8.30;73.50
16347;DHT22;8283;48.504;13.734;2022-12-29T09:19:50;8.30;73.40
16347;DHT22;8283;48.504;13.734;2022-12-29T09:22:35;8.40;73.40
16347;DHT22;8283;48.504;13.734;2022-12-29T09:25:20;8.40;73.40
16347;DHT22;8283;48.504;13.734;2022-12-29T09:28:06;8.40;73.40
16347;DHT22;8283;48.504;13.734;2022-12-29T09:30:52;8.50;73.60
16347;DHT22;8283;48.504;13.734;2022-12-29T09:33:36;8.50;73.80
16347;DHT22;8283;48.504;13.734;2022-12-29T09:36:20;8.60;74.00
16347;DHT22;8283;48.504;13.734;2022-12-29T09:39:05;8.70;74.20
16347;DHT22;8283;48.504;13.734;2022-12-29T09:42:06;8.80;74.20
16347;DHT22;8283;48.504;13.734;2022-12-29T09:45:14;8.90;74.30
16347;DHT22;8283;48.504;13.734;2022-12-29T09:47:59;9.00;74.80
16347;DHT22;8283;48.504;13.734;2022-12-29T09:50:47;9.20;75.40
16347;DHT22;8283;48.504;13.734;2022-12-29T09:53:41;9.30;75.40
16347;DHT22;8283;48.504;13.734;2022-12-29T09:56:28;9.50;75.30
16347;DHT22;8283;48.504;13.734;2022-12-29T09:59:17;9.70;75.00
16347;DHT22;8283;48.504;13.734;2022-12-29T10:02:31;9.80;74.30
16347;DHT22;8283;48.504;13.734;2022-12-29T10:05:32;10.00;73.30
16347;DHT22;8283;48.504;13.734;2022-12-29T10:08:42;10.00;73.40
16347;DHT22;8283;48.504;13.734;2022-12-29T10:17:54;10.30;73.90
16347;DHT22;8283;48.504;13.734;2022-12-29T10:20:49;10.40;73.50
16347;DHT22;8283;48.504;13.734;2022-12-29T10:23:51;10.40;73.30
16347;DHT22;8283;48.504;13.734;2022-12-29T10:26:40;10.40;73.20
16347;DHT22;8283;48.504;13.734;2022-12-29T10:29:37;10.40;73.10
16347;DHT22;8283;48.504;13.734;2022-12-29T10:32:39;10.50;72.90
16347;DHT22;8283;48.504;13.734;2022-12-29T10:35:31;10.60;73.10
16347;DHT22;8283;48.504;13.734;2022-12-29T10:44:12;10.80;74.30
16347;DHT22;8283;48.504;13.734;2022-12-29T10:47:01;11.00;74.70
16347;DHT22;8283;48.504;13.734;2022-12-29T10:49:47;11.20;75.30
16347;DHT22;8283;48.504;13.734;2022-12-29T10:52:33;11.40;75.70
16347;DHT22;8283;48.504;13.734;2022-12-29T10:55:22;11.60;75.40
16347;DHT22;8283;48.504;13.734;2022-12-29T10:58:12;11.80;74.50
16347;DHT22;8283;48.504;13.734;2022-12-29T11:00:57;11.90;73.80
16347;DHT22;8283;48.504;13.734;2022-12-29T11:03:58;12.00;73.40
16347;DHT22;8283;48.504;13.734;2022-12-29T11:06:46;12.10;72.30
16347;DHT22;8283;48.504;13.734;2022-12-29T11:09:33;12.10;72.40
16347;DHT22;8283;48.504;13.734;2022-12-29T11:15:14;12.10;72.00
16347;DHT22;8283;48.504;13.734;2022-12-29T11:17:59;12.10;71.70
16347;DHT22;8283;48.504;13.734;2022-12-29T11:20:44;12.10;71.90
16347;DHT22;8283;48.504;13.734;2022-12-29T11:23:32;12.10;71.90
16347;DHT22;8283;48.504;13.734;2022-12-29T11:26:20;12.10;71.70
16347;DHT22;8283;48.504;13.734;2022-12-29T11:31:55;12.00;71.70
16347;DHT22;8283;48.504;13.734;2022-12-29T11:34:40;12.00;71.50
16347;DHT22;8283;48.504;13.734;2022-12-29T11:37:31;12.00;71.60
16347;DHT22;8283;48.504;13.734;2022-12-29T11:40:19;12.00;71.30
16347;DHT22;8283;48.504;13.734;2022-12-29T11:43:05;11.90;71.60
16347;DHT22;8283;48.504;13.734;2022-12-29T11:45:52;12.10;71.90
16347;DHT22;8283;48.504;13.734;2022-12-29T11:48:39;12.10;71.70
16347;DHT22;8283;48.504;13.734;2022-12-29T11:51:35;12.20;71.70
16347;DHT22;8283;48.504;13.734;2022-12-29T11:54:34;12.20;71.10
16347;DHT22;8283;48.504;13.734;2022-12-29T11:57:21;12.30;71.20
16347;DHT22;8283;48.504;13.734;2022-12-29T12:00:16;12.30;71.70
16347;DHT22;8283;48.504;13.734;2022-12-29T12:03:05;12.30;71.20
16347;DHT22;8283;48.504;13.734;2022-12-29T12:05:58;12.40;71.70
16347;DHT22;8283;48.504;13.734;2022-12-29T12:08:54;12.40;71.30
16347;DHT22;8283;48.504;13.734;2022-12-29T12:11:42;12.40;71.00
16347;DHT22;8283;48.504;13.734;2022-12-29T12:18:00;12.50;71.50
16347;DHT22;8283;48.504;13.734;2022-12-29T12:20:52;12.50;70.60
16347;DHT22;8283;48.504;13.734;2022-12-29T12:23:57;12.50;70.90
16347;DHT22;8283;48.504;13.734;2022-12-29T12:33:02;12.70;70.10
16347;DHT22;8283;48.504;13.734;2022-12-29T12:36:12;12.60;70.60
16347;DHT22;8283;48.504;13.734;2022-12-29T12:48:05;12.90;71.40
16347;DHT22;8283;48.504;13.734;2022-12-29T12:51:14;13.00;70.90
16347;DHT22;8283;48.504;13.734;2022-12-29T12:54:13;13.10;70.80
16347;DHT22;8283;48.504;13.734;2022-12-29T13:00:08;13.30;71.50
16347;DHT22;8283;48.504;13.734;2022-12-29T13:03:12;13.40;70.70
16347;DHT22;8283;48.504;13.734;2022-12-29T13:06:23;13.40;70.10
16347;DHT22;8283;48.504;13.734;2022-12-29T13:12:35;13.50;69.10
16347;DHT22;8283;48.504;13.734;2022-12-29T13:15:43;13.50;70.10
16347;DHT22;8283;48.504;13.734;2022-12-29T13:22:11;13.50;69.70
16347;DHT22;8283;48.504;13.734;2022-12-29T13:28:13;13.50;69.40
16347;DHT22;8283;48.504;13.734;2022-12-29T13:31:33;13.50;68.60
16347;DHT22;8283;48.504;13.734;2022-12-29T13:37:16;13.50;69.60
16347;DHT22;8283;48.504;13.734;2022-12-29T13:40:11;13.50;69.10
16347;DHT22;8283;48.504;13.734;2022-12-29T13:42:57;13.40;69.10
16347;DHT22;8283;48.504;13.734;2022-12-29T13:45:42;13.40;69.30
16347;DHT22;8283;48.504;13.734;2022-12-29T13:48:38;13.40;69.20
16347;DHT22;8283;48.504;13.734;2022-12-29T13:51:25;13.40;68.40
16347;DHT22;8283;48.504;13.734;2022-12-29T13:57:40;13.40;68.20
16347;DHT22;8283;48.504;13.734;2022-12-29T14:00:27;13.40;67.80
16347;DHT22;8283;48.504;13.734;2022-12-29T14:03:38;13.40;68.90
16347;DHT22;8283;48.504;13.734;2022-12-29T14:06:29;13.40;67.90
16347;DHT22;8283;48.504;13.734;2022-12-29T14:12:41;13.40;67.40
16347;DHT22;8283;48.504;13.734;2022-12-29T14:15:27;13.30;68.00
16347;DHT22;8283;48.504;13.734;2022-12-29T14:18:23;13.30;68.60
16347;DHT22;8283;48.504;13.734;2022-12-29T14:21:17;13.20;67.90
16347;DHT22;8283;48.504;13.734;2022-12-29T14:24:37;13.20;68.30
16347;DHT22;8283;48.504;13.734;2022-12-29T14:30:52;13.10;68.50
16347;DHT22;8283;48.504;13.734;2022-12-29T14:33:37;13.00;67.30
16347;DHT22;8283;48.504;13.734;2022-12-29T14:42:19;12.80;67.80
16347;DHT22;8283;48.504;13.734;2022-12-29T14:47:59;12.70;68.20
16347;DHT22;8283;48.504;13.734;2022-12-29T14:50:45;12.60;68.90
16347;DHT22;8283;48.504;13.734;2022-12-29T14:53:59;12.60;68.10
16347;DHT22;8283;48.504;13.734;2022-12-29T14:56:44;12.50;67.30
16347;DHT22;8283;48.504;13.734;2022-12-29T14:59:30;12.50;68.70
16347;DHT22;8283;48.504;13.734;2022-12-29T15:02:19;12.40;67.90
16347;DHT22;8283;48.504;13.734;2022-12-29T15:05:10;12.30;67.90
16347;DHT22;8283;48.504;13.734;2022-12-29T15:08:04;12.30;68.00
16347;DHT22;8283;48.504;13.734;2022-12-29T15:10:53;12.30;68.20
16347;DHT22;8283;48.504;13.734;2022-12-29T15:13:41;12.20;68.00
16347;DHT22;8283;48.504;13.734;2022-12-29T15:16:32;12.20;68.00
16347;DHT22;8283;48.504;13.734;2022-12-29T15:19:23;12.10;67.80
16347;DHT22;8283;48.504;13.734;2022-12-29T15:22:09;12.10;67.70
16347;DHT22;8283;48.504;13.734;2022-12-29T15:24:54;12.00;67.90
16347;DHT22;8283;48.504;13.734;2022-12-29T15:27:39;11.90;67.80
16347;DHT22;8283;48.504;13.734;2022-12-29T15:30:24;11.90;67.80
16347;DHT22;8283;48.504;13.734;2022-12-29T15:33:18;11.80;67.80
16347;DHT22;8283;48.504;13.734;2022-12-29T15:36:05;11.80;67.70
16347;DHT22;8283;48.504;13.734;2022-12-29T15:38:54;11.70;67.90
16347;DHT22;8283;48.504;13.734;2022-12-29T15:41:46;11.60;68.00
16347;DHT22;8283;48.504;13.734;2022-12-29T15:44:44;11.60;68.00
16347;DHT22;8283;48.504;13.734;2022-12-29T15:47:30;11.50;68.00
16347;DHT22;8283;48.504;13.734;2022-12-29T15:50:22;11.50;67.90
16347;DHT22;8283;48.504;13.734;2022-12-29T15:53:12;11.40;67.80
16347;DHT22;8283;48.504;13.734;2022-12-29T15:56:07;11.30;68.00
16347;DHT22;8283;48.504;13.734;2022-12-29T15:58:54;11.30;68.00
16347;DHT22;8283;48.504;13.734;2022-12-29T16:01:38;11.20;68.00
16347;DHT22;8283;48.504;13.734;2022-12-29T16:04:23;11.20;68.20
16347;DHT22;8283;48.504;13.734;2022-12-29T16:07:28;11.10;68.20
16347;DHT22;8283;48.504;13.734;2022-12-29T16:10:22;11.00;68.20
16347;DHT22;8283;48.504;13.734;2022-12-29T16:13:34;11.00;68.20
16347;DHT22;8283;48.504;13.734;2022-12-29T16:16:21;11.00;68.20
16347;DHT22;8283;48.504;13.734;2022-12-29T16:19:28;10.90;68.20
16347;DHT22;8283;48.504;13.734;2022-12-29T16:22:26;10.90;68.20
16347;DHT22;8283;48.504;13.734;2022-12-29T16:25:24;10.90;68.20
16347;DHT22;8283;48.504;13.734;2022-12-29T16:28:25;10.80;68.10
16347;DHT22;8283;48.504;13.734;2022-12-29T16:31:21;10.70;68.10
16347;DHT22;8283;48.504;13.734;2022-12-29T16:34:28;10.80;68.20
16347;DHT22;8283;48.504;13.734;2022-12-29T16:37:29;10.70;68.00
16347;DHT22;8283;48.504;13.734;2022-12-29T16:40:27;10.60;68.90
16347;DHT22;8283;48.504;13.734;2022-12-29T16:43:21;10.60;68.20
16347;DHT22;8283;48.504;13.734;2022-12-29T16:49:01;10.50;68.40
16347;DHT22;8283;48.504;13.734;2022-12-29T16:51:46;10.40;68.40
16347;DHT22;8283;48.504;13.734;2022-12-29T16:54:34;10.40;68.40
16347;DHT22;8283;48.504;13.734;2022-12-29T16:57:28;10.40;68.50
16347;DHT22;8283;48.504;13.734;2022-12-29T17:00:23;10.30;68.50
16347;DHT22;8283;48.504;13.734;2022-12-29T17:03:09;10.30;68.60
16347;DHT22;8283;48.504;13.734;2022-12-29T17:05:54;10.30;68.60
16347;DHT22;8283;48.504;13.734;2022-12-29T17:08:40;10.30;68.60
16347;DHT22;8283;48.504;13.734;2022-12-29T17:11:30;10.20;68.40
16347;DHT22;8283;48.504;13.734;2022-12-29T17:17:31;10.20;68.40
16347;DHT22;8283;48.504;13.734;2022-12-29T17:23:01;10.10;68.40
16347;DHT22;8283;48.504;13.734;2022-12-29T17:25:45;10.00;68.50
16347;DHT22;8283;48.504;13.734;2022-12-29T17:28:31;10.00;68.60
16347;DHT22;8283;48.504;13.734;2022-12-29T17:31:16;10.00;68.70
16347;DHT22;8283;48.504;13.734;2022-12-29T17:34:01;9.90;68.70
16347;DHT22;8283;48.504;13.734;2022-12-29T17:36:45;9.90;68.80
16347;DHT22;8283;48.504;13.734;2022-12-29T17:39:30;9.90;68.90
16347;DHT22;8283;48.504;13.734;2022-12-29T17:42:14;9.80;68.80
16347;DHT22;8283;48.504;13.734;2022-12-29T17:45:01;9.80;68.90
16347;DHT22;8283;48.504;13.734;2022-12-29T17:47:46;9.80;69.00
16347;DHT22;8283;48.504;13.734;2022-12-29T17:50:31;9.80;68.90
16347;DHT22;8283;48.504;13.734;2022-12-29T17:53:20;9.80;69.00
16347;DHT22;8283;48.504;13.734;2022-12-29T17:56:05;9.80;69.10
16347;DHT22;8283;48.504;13.734;2022-12-29T17:58:50;9.80;69.00
16347;DHT22;8283;48.504;13.734;2022-12-29T18:01:35;9.70;69.10
16347;DHT22;8283;48.504;13.734;2022-12-29T18:04:19;9.70;69.10
16347;DHT22;8283;48.504;13.734;2022-12-29T18:07:09;9.70;69.10
16347;DHT22;8283;48.504;13.734;2022-12-29T18:09:54;9.60;69.30
16347;DHT22;8283;48.504;13.734;2022-12-29T18:12:41;9.60;69.30
16347;DHT22;8283;48.504;13.734;2022-12-29T18:15:29;9.60;69.40
16347;DHT22;8283;48.504;13.734;2022-12-29T18:18:18;9.60;69.40
16347;DHT22;8283;48.504;13.734;2022-12-29T18:21:03;9.60;69.50
16347;DHT22;8283;48.504;13.734;2022-12-29T18:23:48;9.60;69.50
16347;DHT22;8283;48.504;13.734;2022-12-29T18:26:32;9.60;69.50
16347;DHT22;8283;48.504;13.734;2022-12-29T18:29:19;9.50;69.30
16347;DHT22;8283;48.504;13.734;2022-12-29T18:32:04;9.50;69.40
16347;DHT22;8283;48.504;13.734;2022-12-29T18:34:50;9.50;69.40
16347;DHT22;8283;48.504;13.734;2022-12-29T18:37:35;9.50;69.30
16347;DHT22;8283;48.504;13.734;2022-12-29T18:40:19;9.50;69.30
16347;DHT22;8283;48.504;13.734;2022-12-29T18:43:04;9.50;69.20
16347;DHT22;8283;48.504;13.734;2022-12-29T18:45:48;9.40;69.20
16347;DHT22;8283;48.504;13.734;2022-12-29T18:48:33;9.40;69.10
16347;DHT22;8283;48.504;13.734;2022-12-29T18:51:21;9.40;69.10
16347;DHT22;8283;48.504;13.734;2022-12-29T18:54:08;9.40;69.10
16347;DHT22;8283;48.504;13.734;2022-12-29T18:56:57;9.40;69.20
16347;DHT22;8283;48.504;13.734;2022-12-29T18:59:42;9.30;69.10
16347;DHT22;8283;48.504;13.734;2022-12-29T19:02:26;9.30;69.10
16347;DHT22;8283;48.504;13.734;2022-12-29T19:05:22;9.30;69.30
16347;DHT22;8283;48.504;13.734;2022-12-29T19:08:07;9.20;69.40
16347;DHT22;8283;48.504;13.734;2022-12-29T19:10:52;9.20;69.30
16347;DHT22;8283;48.504;13.734;2022-12-29T19:13:37;9.20;69.30
16347;DHT22;8283;48.504;13.734;2022-12-29T19:16:22;9.10;69.30
16347;DHT22;8283;48.504;13.734;2022-12-29T19:19:13;9.10;69.30
16347;DHT22;8283;48.504;13.734;2022-12-29T19:21:58;9.10;69.40
16347;DHT22;8283;48.504;13.734;2022-12-29T19:24:42;9.00;69.30
16347;DHT22;8283;48.504;13.734;2022-12-29T19:27:27;9.00;69.40
16347;DHT22;8283;48.504;13.734;2022-12-29T19:30:12;9.00;69.50
16347;DHT22;8283;48.504;13.734;2022-12-29T19:32:58;8.90;69.50
16347;DHT22;8283;48.504;13.734;2022-12-29T19:35:43;8.90;69.60
16347;DHT22;8283;48.504;13.734;2022-12-29T19:38:27;8.90;69.70
16347;DHT22;8283;48.504;13.734;2022-12-29T19:41:13;8.90;69.70
16347;DHT22;8283;48.504;13.734;2022-12-29T19:43:57;8.80;69.70